Time;durP1;ratioP1;P1;durP2;ratioP2;P2;SDS_P1;SDS_P2;PMS_P1;PMS_P2;Temp;Humidity;BMP_temperature;BMP_pressure;BME280_temperature;BME280_humidity;BME280_pressure;Samples;Min_cycle;Max_cycle;Signal;HPM_P1;HPM_P2
2022/11/02 00:01:59;;;;;;;18.73;12.00;;;12.60;99.90;11.90;100469;;;;571185;247;24136;-82
2022/11/02 00:04:27;;;;;;;16.23;10.43;;;12.60;99.90;11.90;100463;;;;570561;248;24131;-81
2022/11/02 00:06:58;;;;;;;16.90;11.03;;;12.60;99.90;11.90;100463;;;;581820;243;24026;-79
2022/11/02 00:09:23;;;;;;;13.80;10.03;;;12.60;99.90;11.90;100475;;;;569547;247;24101;-80
2022/11/02 00:11:51;;;;;;;14.07;10.33;;;12.70;99.90;12.00;100464;;;;571243;248;24065;-80
2022/11/02 00:14:19;;;;;;;18.07;10.23;;;12.70;99.90;11.90;100476;;;;582316;243;23989;-80
2022/11/02 00:16:46;;;;;;;16.80;11.57;;;12.70;99.90;11.90;100469;;;;571612;247;24159;-81
2022/11/02 00:19:17;;;;;;;20.13;10.73;;;12.70;99.90;11.90;100474;;;;571916;247;24105;-80
2022/11/02 00:21:46;;;;;;;16.10;9.93;;;12.70;99.90;11.90;100474;;;;594311;241;23998;-79
2022/11/02 00:24:11;;;;;;;15.73;10.93;;;12.70;99.90;11.90;100472;;;;582905;242;24113;-80
2022/11/02 00:26:39;;;;;;;20.20;11.53;;;12.70;99.90;11.90;100470;;;;581279;247;24076;-81
2022/11/02 00:29:10;;;;;;;18.33;10.70;;;12.70;99.90;11.90;100473;;;;582268;243;24034;-81
2022/11/02 00:31:35;;;;;;;20.43;11.47;;;12.70;99.90;11.90;100475;;;;571341;247;24103;-80
2022/11/02 00:34:03;;;;;;;21.80;12.03;;;12.70;99.90;11.90;100474;;;;582116;243;24025;-81
2022/11/02 00:36:32;;;;;;;18.33;10.30;;;12.60;99.90;11.90;100474;;;;571496;247;24125;-81
2022/11/02 00:39:01;;;;;;;19.30;12.17;;;12.60;99.90;11.90;100474;;;;570850;247;24149;-81
2022/11/02 00:41:29;;;;;;;24.37;11.10;;;12.60;99.90;11.90;100475;;;;581915;243;24055;-81
2022/11/02 00:43:57;;;;;;;18.53;13.20;;;12.60;99.90;11.90;100470;;;;571516;247;24079;-81
2022/11/02 00:46:28;;;;;;;21.30;11.90;;;12.60;99.90;11.90;100474;;;;571083;247;24096;-81
2022/11/02 00:48:53;;;;;;;23.37;11.73;;;12.60;99.90;11.90;100473;;;;581836;243;24010;-81
2022/11/02 00:51:21;;;;;;;16.73;11.53;;;12.60;99.90;11.90;100479;;;;571512;247;24103;-81
2022/11/02 00:53:49;;;;;;;21.70;12.17;;;12.60;99.90;11.90;100482;;;;570954;247;24143;-81
2022/11/02 00:56:17;;;;;;;19.57;13.00;;;12.60;99.90;11.90;100486;;;;581837;243;24005;-82
2022/11/02 00:58:45;;;;;;;19.27;12.83;;;12.60;99.90;11.90;100487;;;;571527;247;24086;-81
2022/11/02 01:01:13;;;;;;;19.43;11.67;;;12.60;99.90;11.90;100487;;;;570850;248;24078;-81
2022/11/02 01:03:41;;;;;;;22.83;12.40;;;12.60;99.90;11.90;100488;;;;581866;243;24057;-81
2022/11/02 01:06:10;;;;;;;24.27;12.67;;;12.60;99.90;11.90;100490;;;;571205;247;24088;-81
2022/11/02 01:08:38;;;;;;;21.47;13.17;;;12.60;99.90;11.80;100493;;;;570442;248;24103;-82
2022/11/02 01:11:12;;;;;;;26.50;18.03;;;12.50;99.90;11.80;100488;;;;576315;243;35057;-82
2022/11/02 01:13:36;;;;;;;21.83;13.90;;;12.60;99.90;11.80;100494;;;;569729;247;24087;-82
2022/11/02 01:16:04;;;;;;;17.97;13.30;;;12.60;99.90;11.80;100495;;;;570121;248;24073;-80
2022/11/02 01:18:32;;;;;;;23.03;12.73;;;12.50;99.90;11.80;100495;;;;579051;247;24089;-81
2022/11/02 01:21:01;;;;;;;25.77;13.20;;;12.50;99.90;11.70;100496;;;;581170;243;24048;-81
2022/11/02 01:23:36;;;;;;;22.10;13.03;;;12.50;99.90;11.70;100502;;;;570614;247;24098;-81
2022/11/02 01:26:06;;;;;;;23.53;13.17;;;12.50;99.90;11.70;100496;;;;568605;248;24094;-81
2022/11/02 01:28:35;;;;;;;18.30;12.83;;;12.30;99.90;11.60;100502;;;;570469;247;24124;-81
2022/11/02 01:31:06;;;;;;;18.67;12.03;;;12.30;99.90;11.50;100496;;;;582461;242;24084;-81
2022/11/02 01:33:36;;;;;;;20.47;12.77;;;12.30;99.90;11.50;100504;;;;571684;247;24099;-79
2022/11/02 01:36:00;;;;;;;18.73;12.00;;;12.20;99.90;11.40;100496;;;;571883;247;24118;-81
2022/11/02 01:38:28;;;;;;;22.73;12.50;;;12.10;99.90;11.40;100492;;;;582181;242;24043;-80
2022/11/02 01:40:56;;;;;;;26.37;14.13;;;12.10;99.90;11.30;100485;;;;574225;247;24074;-81
2022/11/02 01:43:33;;;;;;;28.20;12.17;;;12.00;99.90;11.30;100495;;;;582285;243;24020;-81
2022/11/02 01:46:09;;;;;;;21.20;11.97;;;12.00;99.90;11.20;100490;;;;571507;247;24088;-81
2022/11/02 01:48:49;;;;;;;21.03;12.53;;;11.90;99.90;11.20;100488;;;;570784;247;24200;-81
2022/11/02 01:51:26;;;;;;;17.50;12.33;;;11.90;99.90;11.10;100493;;;;581818;243;24033;-81
2022/11/02 01:53:55;;;;;;;20.73;12.90;;;11.70;99.90;11.00;100484;;;;569199;247;24055;-80
2022/11/02 01:56:27;;;;;;;26.27;12.83;;;11.60;99.90;10.90;100491;;;;581697;243;24078;-81
2022/11/02 01:58:51;;;;;;;24.87;12.37;;;11.60;99.90;10.80;100483;;;;571342;247;24121;-82
2022/11/02 02:01:20;;;;;;;22.47;13.47;;;11.50;99.90;10.70;100482;;;;571043;247;24170;-81
2022/11/02 02:03:48;;;;;;;22.13;12.27;;;11.40;99.90;10.60;100482;;;;582302;243;25087;-81
2022/11/02 02:06:17;;;;;;;21.93;11.70;;;11.20;99.90;10.50;100476;;;;571621;247;24030;-82
2022/11/02 02:08:45;;;;;;;21.50;11.57;;;11.20;99.90;10.40;100484;;;;581941;243;24101;-82
2022/11/02 02:11:28;;;;;;;23.90;12.57;;;11.20;99.90;10.40;100483;;;;581809;243;24067;-81
2022/11/02 02:13:56;;;;;;;24.70;11.73;;;11.10;99.90;10.30;100486;;;;570512;247;24082;-81
2022/11/02 02:16:23;;;;;;;22.27;12.30;;;11.00;99.90;10.20;100481;;;;567967;247;24137;-81
2022/11/02 02:18:57;;;;;;;22.50;11.57;;;10.90;99.90;10.10;100480;;;;571865;243;24159;-81
2022/11/02 02:21:37;;;;;;;17.53;11.10;;;10.90;99.90;10.10;100472;;;;570276;248;24102;-81
2022/11/02 02:24:44;;;;;;;22.70;12.90;;;10.80;99.90;10.00;100476;;;;581265;243;24048;-81
2022/11/02 02:27:20;;;;;;;18.67;11.27;;;10.70;99.90;9.80;100478;;;;571482;247;24109;-82
2022/11/02 02:30:10;;;;;;;23.03;11.67;;;10.60;99.90;9.80;100495;;;;570931;248;24110;-83
2022/11/02 02:32:52;;;;;;;21.20;12.07;;;10.50;99.90;9.70;100478;;;;579352;247;24115;-81
2022/11/02 02:35:26;;;;;;;20.47;11.17;;;10.40;99.90;9.60;100478;;;;581596;243;24029;-82
2022/11/02 02:37:54;;;;;;;18.87;11.10;;;10.30;99.90;9.60;100473;;;;581206;243;24100;-81
2022/11/02 02:40:34;;;;;;;24.03;11.60;;;10.30;99.90;9.40;100468;;;;568934;247;24072;-81
2022/11/02 02:43:08;;;;;;;18.33;10.67;;;10.20;99.90;9.40;100479;;;;581934;242;24045;-81
2022/11/02 02:45:38;;;;;;;18.03;10.33;;;10.10;99.90;9.30;100476;;;;581654;242;24067;-82
2022/11/02 02:48:09;;;;;;;22.70;10.43;;;10.00;99.90;9.30;100487;;;;580779;242;24063;-81
2022/11/02 02:50:57;;;;;;;24.73;11.77;;;10.00;99.90;9.20;100475;;;;581433;243;24032;-82
2022/11/02 02:53:28;;;;;;;20.20;10.23;;;9.90;99.90;9.20;100488;;;;573041;246;24073;-81
2022/11/02 02:56:01;;;;;;;17.63;10.40;;;9.90;99.90;9.10;100483;;;;567164;248;24093;-81
2022/11/02 02:58:25;;;;;;;24.70;10.90;;;9.80;99.90;9.10;100484;;;;581038;243;24041;-82
2022/11/02 03:00:57;;;;;;;21.53;11.17;;;9.80;99.90;9.00;100483;;;;578943;243;24065;-82
2022/11/02 03:03:24;;;;;;;21.17;10.80;;;9.80;99.90;9.00;100488;;;;573551;247;24090;-82
2022/11/02 03:06:07;;;;;;;16.60;10.00;;;9.70;99.90;8.90;100490;;;;580992;243;24120;-81
2022/11/02 03:08:35;;;;;;;23.43;10.33;;;9.70;99.90;8.80;100481;;;;575098;243;24059;-81
2022/11/02 03:11:15;;;;;;;17.37;10.83;;;9.60;99.90;8.80;100486;;;;577995;243;24054;-81
2022/11/02 03:14:07;;;;;;;21.13;11.50;;;9.50;99.90;8.70;100486;;;;580861;243;24052;-80
2022/11/02 03:17:18;;;;;;;26.03;12.00;;;9.50;99.90;8.60;100490;;;;570440;247;24052;-81
2022/11/02 03:20:04;;;;;;;21.97;11.80;;;9.40;99.90;8.60;100492;;;;570627;247;24074;-82
2022/11/02 03:22:46;;;;;;;21.83;10.67;;;9.30;99.90;8.50;100505;;;;571465;247;24120;-82
2022/11/02 03:25:14;;;;;;;25.87;11.37;;;9.30;99.90;8.50;100502;;;;582107;243;24097;-82
2022/11/02 03:28:12;;;;;;;21.60;11.93;;;9.20;99.90;8.40;100509;;;;581138;243;24057;-82
2022/11/02 03:30:45;;;;;;;18.13;10.50;;;9.20;99.90;8.40;100513;;;;581933;243;24071;-82
2022/11/02 03:33:20;;;;;;;24.63;10.40;;;9.10;99.90;8.30;100511;;;;570180;247;24103;-82
2022/11/02 03:35:54;;;;;;;23.73;11.73;;;9.10;99.90;8.30;100522;;;;577090;248;24139;-82
2022/11/02 03:38:22;;;;;;;24.03;12.23;;;9.00;99.90;8.30;100519;;;;580507;243;24100;-81
2022/11/02 03:40:55;;;;;;;25.87;12.03;;;9.10;99.90;8.40;100512;;;;578335;243;24100;-82
2022/11/02 03:43:24;;;;;;;23.63;12.60;;;9.10;99.90;8.40;100514;;;;589868;243;24040;-83
2022/11/02 03:45:54;;;;;;;25.63;12.67;;;9.10;99.90;8.40;100515;;;;590223;243;24091;-82
2022/11/02 03:48:22;;;;;;;21.30;12.20;;;9.10;99.90;8.40;100525;;;;581936;243;24042;-81
2022/11/02 03:50:51;;;;;;;26.27;12.47;;;9.10;99.90;8.40;100530;;;;579358;243;24047;-81
2022/11/02 03:53:49;;;;;;;21.57;12.00;;;9.10;99.90;8.40;100524;;;;582404;242;24039;-81
2022/11/02 03:56:28;;;;;;;22.83;12.50;;;9.10;99.90;8.40;100534;;;;582739;242;24044;-81
2022/11/02 03:58:59;;;;;;;22.77;12.00;;;9.10;99.90;8.30;100528;;;;580625;242;24090;-82
2022/11/02 04:01:24;;;;;;;20.30;13.30;;;9.10;99.90;8.30;100532;;;;578878;242;24080;-82
2022/11/02 04:03:52;;;;;;;24.40;12.60;;;9.10;99.90;8.30;100532;;;;581567;243;24040;-80
2022/11/02 04:06:24;;;;;;;20.47;12.40;;;9.10;99.90;8.30;100522;;;;570778;247;24067;-81
2022/11/02 04:08:52;;;;;;;18.53;11.53;;;9.10;99.90;8.30;100539;;;;581175;243;24024;-81
2022/11/02 04:16:48;;;;;;;28.83;12.50;;;9.10;99.90;8.40;100540;;;;568473;247;24141;-81
2022/11/02 04:19:27;;;;;;;25.93;12.67;;;9.10;99.90;8.40;100533;;;;570490;247;24071;-81
2022/11/02 04:27:27;;;;;;;23.73;13.47;;;9.20;99.90;8.60;100529;;;;578812;242;24097;-81
2022/11/02 04:29:55;;;;;;;21.53;11.50;;;9.30;99.90;8.70;100516;;;;581157;243;24045;-81
2022/11/02 04:35:11;;;;;;;36.93;21.30;;;9.40;99.90;8.70;100522;;;;573214;243;34969;-81
2022/11/02 04:40:28;;;;;;;22.87;12.50;;;9.40;99.90;8.60;100516;;;;567760;247;24066;-81
2022/11/02 04:42:56;;;;;;;24.90;14.10;;;9.30;99.90;8.50;100513;;;;570009;247;24066;-81
2022/11/02 04:45:24;;;;;;;25.63;13.97;;;9.30;99.90;8.40;100517;;;;581085;243;24043;-81
2022/11/02 04:47:52;;;;;;;24.97;13.90;;;9.20;99.90;8.40;100512;;;;581485;243;24076;-82
2022/11/02 04:50:20;;;;;;;29.07;14.87;;;9.10;99.90;8.40;100513;;;;581655;243;24075;-81
2022/11/02 04:52:48;;;;;;;24.10;13.83;;;9.10;99.90;8.30;100511;;;;570174;247;24103;-81
2022/11/02 04:55:16;;;;;;;28.53;14.83;;;9.10;99.90;8.30;100504;;;;580258;243;24139;-81
2022/11/02 04:57:48;;;;;;;25.33;15.17;;;9.10;99.90;8.30;100515;;;;581039;243;24038;-81
2022/11/02 05:00:15;;;;;;;29.63;14.33;;;9.10;99.90;8.30;100500;;;;581509;243;24062;-81
2022/11/02 05:02:40;;;;;;;23.33;14.40;;;9.10;99.90;8.40;100506;;;;567909;249;24109;-82
2022/11/02 05:05:11;;;;;;;24.37;14.07;;;9.10;99.90;8.30;100507;;;;581643;242;24230;-82
2022/11/02 05:07:36;;;;;;;28.13;14.93;;;9.10;99.90;8.30;100504;;;;582515;243;24116;-81
2022/11/02 05:10:06;;;;;;;25.10;14.53;;;9.10;99.90;8.30;100505;;;;581913;243;24063;-81
2022/11/02 05:12:33;;;;;;;29.90;14.23;;;9.00;99.90;8.20;100502;;;;579082;243;24070;-81
2022/11/02 05:15:03;;;;;;;21.23;13.87;;;8.90;99.90;8.10;100504;;;;581465;243;24068;-81
2022/11/02 05:17:30;;;;;;;34.13;15.80;;;8.80;99.90;8.00;100502;;;;581407;243;24067;-82
2022/11/02 05:19:57;;;;;;;31.00;16.83;;;8.80;99.90;8.00;100508;;;;581383;243;24059;-81
2022/11/02 05:22:25;;;;;;;26.63;16.10;;;8.80;99.90;7.90;100513;;;;581407;243;24071;-81
2022/11/02 05:24:53;;;;;;;35.70;17.93;;;8.70;99.90;7.90;100516;;;;581075;243;24080;-81
2022/11/02 05:27:21;;;;;;;33.93;15.33;;;8.70;99.90;7.80;100521;;;;581493;243;24078;-81
2022/11/02 05:29:49;;;;;;;25.33;14.87;;;8.60;99.90;7.80;100526;;;;581328;243;24055;-81
2022/11/02 05:32:18;;;;;;;23.83;15.03;;;8.60;99.90;7.80;100531;;;;581068;243;25127;-80
2022/11/02 05:34:46;;;;;;;38.72;21.37;;;8.60;99.90;7.80;100529;;;;576039;243;35203;-82
2022/11/02 05:37:14;;;;;;;34.20;16.30;;;8.50;99.90;7.80;100530;;;;580799;243;24064;-81
2022/11/02 05:39:42;;;;;;;26.37;14.03;;;8.60;99.90;7.80;100539;;;;577980;243;24049;-83
2022/11/02 05:42:10;;;;;;;38.33;19.53;;;8.50;99.90;7.80;100545;;;;580404;243;25102;-82
2022/11/02 05:44:38;;;;;;;25.53;15.23;;;8.50;99.90;7.80;100540;;;;580768;243;24065;-83
2022/11/02 05:47:06;;;;;;;31.10;15.80;;;8.60;99.90;7.80;100539;;;;580783;243;24076;-82
2022/11/02 05:49:34;;;;;;;32.53;14.90;;;8.60;99.90;7.80;100539;;;;580780;243;24082;-83
2022/11/02 05:52:02;;;;;;;26.50;14.43;;;8.60;99.90;7.80;100539;;;;580807;243;24053;-83
2022/11/02 05:54:30;;;;;;;22.77;14.27;;;8.60;99.90;7.90;100536;;;;580623;243;24064;-82
2022/11/02 05:56:58;;;;;;;22.80;13.07;;;8.60;99.90;7.90;100530;;;;580331;243;24101;-82
2022/11/02 05:59:26;;;;;;;25.83;13.57;;;8.60;99.90;7.90;100537;;;;580493;243;24061;-82
2022/11/02 06:01:54;;;;;;;23.10;13.83;;;8.70;99.90;7.90;100540;;;;580435;243;24144;-82
2022/11/02 06:04:22;;;;;;;28.63;14.10;;;8.70;99.90;7.90;100540;;;;580131;243;24054;-82
2022/11/02 06:06:50;;;;;;;26.80;15.37;;;8.70;99.90;8.00;100536;;;;580237;243;24126;-83
2022/11/02 06:09:18;;;;;;;26.03;13.67;;;8.70;99.90;8.00;100531;;;;580244;243;24105;-83
2022/11/02 06:11:47;;;;;;;31.97;14.67;;;8.70;99.90;8.00;100533;;;;580413;243;24074;-82
2022/11/02 06:14:15;;;;;;;23.27;14.27;;;8.80;99.90;8.00;100536;;;;580231;243;24141;-82
2022/11/02 06:16:42;;;;;;;21.57;13.20;;;8.70;99.90;8.00;100529;;;;580950;242;24169;-82
2022/11/02 06:19:10;;;;;;;25.00;13.33;;;8.80;99.90;8.10;100539;;;;581559;243;24071;-82
2022/11/02 06:21:39;;;;;;;22.33;13.27;;;8.80;99.90;8.10;100533;;;;581246;243;24094;-82
2022/11/02 06:24:09;;;;;;;30.80;15.10;;;8.90;99.90;8.20;100534;;;;581250;243;24067;-82
2022/11/02 06:26:34;;;;;;;25.83;14.73;;;8.90;99.90;8.30;100538;;;;580759;243;24105;-82
2022/11/02 06:29:02;;;;;;;28.53;15.17;;;9.00;99.90;8.30;100537;;;;581055;243;24058;-81
2022/11/02 06:31:30;;;;;;;29.57;15.07;;;9.10;99.90;8.40;100531;;;;580957;243;24074;-82
2022/11/02 06:33:58;;;;;;;23.50;14.87;;;9.10;99.90;8.50;100544;;;;580852;243;25141;-82
2022/11/02 06:36:27;;;;;;;27.10;14.33;;;9.20;99.90;8.50;100544;;;;580698;243;24079;-82
2022/11/02 06:38:55;;;;;;;26.23;14.47;;;9.30;99.90;8.60;100545;;;;580987;243;24064;-81
2022/11/02 06:41:23;;;;;;;29.70;14.20;;;9.20;99.90;8.60;100555;;;;578114;243;25120;-81
2022/11/02 06:43:51;;;;;;;23.23;13.67;;;9.30;99.90;8.70;100538;;;;580583;243;24067;-81
2022/11/02 06:46:19;;;;;;;20.67;13.23;;;9.40;99.90;8.70;100538;;;;580595;243;24102;-82
2022/11/02 06:48:48;;;;;;;28.03;12.93;;;9.40;99.90;8.80;100547;;;;580541;243;24073;-82
2022/11/02 06:51:15;;;;;;;25.63;14.07;;;9.50;99.90;9.00;100539;;;;577822;243;24125;-81
2022/11/02 06:53:43;;;;;;;18.43;12.03;;;9.60;99.90;9.10;100535;;;;580423;243;24077;-81
2022/11/02 06:56:11;;;;;;;23.53;13.03;;;9.80;99.90;9.30;100539;;;;580165;243;24096;-82
2022/11/02 06:58:39;;;;;;;20.63;12.70;;;9.90;99.90;9.50;100533;;;;580434;243;24102;-83
2022/11/02 07:01:12;;;;;;;21.27;12.27;;;10.10;99.90;9.80;100539;;;;580295;243;24072;-82
2022/11/02 07:03:39;;;;;;;17.73;11.57;;;10.30;99.90;10.00;100541;;;;577454;243;24096;-82
2022/11/02 07:06:03;;;;;;;22.63;12.93;;;10.60;99.90;10.30;100544;;;;579880;243;24065;-82
2022/11/02 07:08:31;;;;;;;20.77;12.67;;;10.80;99.90;10.40;100549;;;;577873;243;24086;-82
2022/11/02 07:10:59;;;;;;;21.83;12.80;;;11.00;99.90;10.60;100556;;;;580348;243;24117;-82
2022/11/02 07:13:27;;;;;;;25.80;11.77;;;11.20;99.90;10.70;100544;;;;580386;243;24078;-82
2022/11/02 07:15:55;;;;;;;19.53;12.43;;;11.30;99.90;10.80;100541;;;;580426;243;24047;-82
2022/11/02 07:18:26;;;;;;;19.43;11.40;;;11.50;99.90;10.90;100552;;;;580415;243;24079;-82
2022/11/02 07:20:51;;;;;;;19.93;11.93;;;11.50;99.90;10.90;100551;;;;578420;243;24083;-82
2022/11/02 07:23:22;;;;;;;17.30;10.80;;;11.60;99.90;11.00;100545;;;;580649;243;24088;-81
2022/11/02 07:25:47;;;;;;;16.60;10.57;;;11.70;99.90;11.00;100549;;;;580532;243;24079;-82
2022/11/02 07:28:15;;;;;;;19.53;10.17;;;11.70;99.90;11.00;100560;;;;581195;242;24085;-82
2022/11/02 07:30:43;;;;;;;14.43;9.97;;;11.70;99.90;11.00;100569;;;;581534;243;24048;-81
2022/11/02 07:33:11;;;;;;;15.10;10.10;;;11.70;99.90;11.00;100568;;;;581307;243;24064;-82
2022/11/02 07:35:40;;;;;;;15.43;9.57;;;11.70;99.90;11.10;100557;;;;581028;243;24068;-82
2022/11/02 07:38:06;;;;;;;21.33;10.90;;;11.80;99.90;11.20;100561;;;;581288;243;24078;-82
2022/11/02 07:40:34;;;;;;;14.10;10.07;;;11.90;99.90;11.50;100559;;;;579868;243;24049;-82
2022/11/02 07:43:02;;;;;;;14.17;9.60;;;12.10;99.90;11.70;100564;;;;580695;243;24083;-82
2022/11/02 07:45:35;;;;;;;13.70;11.37;;;12.50;99.90;11.90;100563;;;;580812;243;24126;-82
2022/11/02 07:48:00;;;;;;;13.77;9.60;;;12.50;99.90;12.00;100559;;;;580483;243;24105;-81
2022/11/02 07:50:28;;;;;;;15.70;9.73;;;12.70;99.90;12.40;100557;;;;580567;243;24053;-81
2022/11/02 07:52:57;;;;;;;15.33;9.77;;;13.90;99.90;13.30;100553;;;;580694;243;24040;-81
2022/11/02 07:55:28;;;;;;;14.83;10.10;;;13.90;99.90;14.70;100563;;;;580457;243;24095;-82
2022/11/02 07:58:02;;;;;;;13.40;9.10;;;15.20;99.90;16.50;100566;;;;580740;243;24067;-82
2022/11/02 08:00:26;;;;;;;14.13;8.60;;;17.00;99.90;18.10;100575;;;;579765;238;24098;-82
2022/11/02 08:02:57;;;;;;;8.43;7.60;;;18.70;99.90;18.90;100570;;;;581487;243;24134;-82
2022/11/02 08:05:22;;;;;;;11.60;7.77;;;19.60;99.90;19.80;100566;;;;580423;243;24069;-82
2022/11/02 08:07:59;;;;;;;12.33;6.77;;;20.40;99.90;21.10;100563;;;;580153;243;23183;-82
2022/11/02 08:10:27;;;;;;;7.47;6.67;;;21.70;99.90;22.50;100564;;;;579938;243;23163;-81
2022/11/02 08:12:53;;;;;;;7.73;6.90;;;23.20;99.90;24.10;100551;;;;579971;243;24061;-81
2022/11/02 08:15:21;;;;;;;6.23;5.63;;;24.60;99.90;24.90;100554;;;;580610;242;24134;-81
2022/11/02 08:17:49;;;;;;;9.73;6.97;;;25.60;99.90;25.60;100552;;;;580595;243;23070;-81
2022/11/02 08:20:17;;;;;;;9.77;6.87;;;26.40;99.90;26.50;100558;;;;580023;243;23119;-81
2022/11/02 08:22:44;;;;;;;8.90;5.83;;;27.30;96.20;27.00;100569;;;;580487;243;24083;-80
2022/11/02 08:25:12;;;;;;;6.40;5.80;;;27.90;92.70;27.60;100571;;;;580672;243;23129;-81
2022/11/02 08:27:41;;;;;;;8.47;6.10;;;28.80;82.70;27.80;100563;;;;580603;243;23090;-81
2022/11/02 08:30:10;;;;;;;9.87;6.13;;;29.20;80.10;28.20;100576;;;;580681;243;23074;-80
2022/11/02 08:32:38;;;;;;;6.80;6.13;;;29.10;80.00;28.50;100577;;;;580761;243;24089;-81
2022/11/02 08:35:09;;;;;;;6.97;6.37;;;29.50;79.20;28.90;100579;;;;581331;243;23069;-80
2022/11/02 08:37:34;;;;;;;9.02;5.90;;;30.00;75.60;29.50;100581;;;;581193;238;24111;-81
2022/11/02 08:40:02;;;;;;;8.95;5.90;;;30.40;71.90;29.70;100578;;;;581542;242;23046;-81
2022/11/02 08:42:30;;;;;;;9.60;6.55;;;30.80;69.60;30.10;100583;;;;581555;243;23076;-81
2022/11/02 08:44:58;;;;;;;9.50;5.75;;;31.10;68.30;30.40;100573;;;;581262;243;24089;-82
2022/11/02 08:47:25;;;;;;;6.00;5.32;;;31.40;65.20;30.40;100572;;;;581229;243;23065;-81
2022/11/02 08:49:53;;;;;;;8.05;6.30;;;31.60;63.40;30.80;100587;;;;581142;243;23138;-82
2022/11/02 08:52:22;;;;;;;6.85;6.05;;;32.00;60.70;30.90;100582;;;;580862;243;23112;-82
2022/11/02 08:54:51;;;;;;;6.65;5.72;;;32.00;59.50;30.80;100580;;;;580875;243;23122;-81
2022/11/02 08:57:19;;;;;;;7.15;5.93;;;32.00;59.40;30.70;100577;;;;580900;243;23073;-81
2022/11/02 08:59:47;;;;;;;6.28;5.68;;;31.90;58.70;30.60;100593;;;;580575;243;23066;-80
2022/11/02 09:02:14;;;;;;;8.13;5.85;;;31.90;59.10;30.20;100586;;;;580747;243;23057;-81
2022/11/02 09:04:42;;;;;;;6.70;6.10;;;31.60;58.80;29.70;100582;;;;580600;243;23058;-81
2022/11/02 09:07:10;;;;;;;9.02;6.00;;;31.20;59.50;29.70;100576;;;;580774;243;23078;-81
2022/11/02 09:09:38;;;;;;;6.28;5.68;;;31.00;59.20;29.60;100589;;;;580616;243;23065;-82
2022/11/02 09:12:06;;;;;;;8.57;5.75;;;30.80;59.60;29.00;100591;;;;580476;243;24115;-81
2022/11/02 09:14:34;;;;;;;7.93;6.20;;;30.50;59.70;27.60;100588;;;;580418;243;23109;-81
2022/11/02 09:17:02;;;;;;;8.00;6.90;;;29.40;61.20;27.10;100596;;;;580232;243;23118;-81
2022/11/02 09:19:30;;;;;;;11.03;6.47;;;28.60;63.50;26.60;100598;;;;580411;243;24066;-81
2022/11/02 09:21:58;;;;;;;6.13;5.57;;;27.90;65.50;25.90;100581;;;;580280;243;23084;-82
2022/11/02 09:24:26;;;;;;;6.20;5.70;;;26.00;68.80;24.50;100580;;;;580154;243;23071;-80
2022/11/02 09:26:54;;;;;;;6.83;5.90;;;25.90;68.80;23.20;100583;;;;580328;243;24073;-81
2022/11/02 09:29:22;;;;;;;5.77;5.27;;;24.80;72.00;22.00;100580;;;;580180;243;24104;-81
2022/11/02 09:31:50;;;;;;;7.47;5.20;;;23.60;75.40;21.10;100581;;;;580372;243;24048;-80
2022/11/02 09:34:18;;;;;;;8.73;5.17;;;22.60;79.00;20.30;100582;;;;580221;243;24071;-80
2022/11/02 09:36:46;;;;;;;10.23;4.30;;;21.70;81.90;19.70;100577;;;;580777;243;24104;-81
2022/11/02 09:39:17;;;;;;;5.07;4.03;;;20.80;85.60;19.10;100572;;;;580655;243;24053;-80
2022/11/02 09:41:43;;;;;;;6.93;3.73;;;20.10;89.80;18.60;100572;;;;580918;243;24095;-82
2022/11/02 09:44:35;;;;;;;12.00;4.50;;;19.60;91.40;18.20;100574;;;;580486;243;24103;-80
2022/11/02 09:47:08;;;;;;;6.30;3.47;;;19.10;92.50;17.70;100569;;;;580364;243;24138;-80
2022/11/02 09:49:32;;;;;;;6.47;3.90;;;18.60;94.40;17.40;100570;;;;580417;243;24160;-81
2022/11/02 09:52:04;;;;;;;9.03;4.27;;;17.80;98.80;17.10;100565;;;;581292;243;24059;-80
2022/11/02 09:54:35;;;;;;;7.23;3.90;;;17.40;99.90;16.70;100560;;;;581660;243;24077;-79
2022/11/02 09:57:10;;;;;;;5.90;4.17;;;17.40;99.90;16.40;100564;;;;580072;243;24057;-81
2022/11/02 09:59:38;;;;;;;5.57;3.57;;;17.10;99.90;16.10;100564;;;;581044;243;24059;-80
2022/11/02 10:02:47;;;;;;;6.47;4.20;;;16.80;99.90;15.90;100561;;;;581163;243;24103;-82
2022/11/02 10:05:37;;;;;;;5.80;3.80;;;16.50;99.90;15.60;100564;;;;581055;243;24076;-80
2022/11/02 10:08:28;;;;;;;7.90;4.23;;;16.20;99.90;15.40;100564;;;;580997;243;24098;-81
2022/11/02 10:11:20;;;;;;;7.90;4.10;;;16.00;99.90;15.30;100551;;;;578081;243;24077;-81
2022/11/02 10:13:54;;;;;;;6.70;3.50;;;15.80;99.90;15.10;100549;;;;574834;247;24114;-81
2022/11/02 10:16:40;;;;;;;6.60;3.40;;;15.70;99.90;15.00;100541;;;;580508;243;24095;-80
2022/11/02 10:19:08;;;;;;;5.20;3.33;;;15.50;99.90;14.80;100545;;;;581218;243;24032;-81
2022/11/02 10:21:37;;;;;;;7.27;3.17;;;15.50;99.90;14.70;100544;;;;580953;243;25083;-81
2022/11/02 10:24:30;;;;;;;9.93;3.83;;;15.30;99.90;14.60;100543;;;;571109;247;24128;-81
2022/11/02 10:26:58;;;;;;;5.17;3.77;;;15.20;99.90;14.50;100548;;;;581363;243;24034;-80
2022/11/02 10:29:56;;;;;;;5.57;3.40;;;15.10;99.90;14.40;100547;;;;588874;243;24063;-79
2022/11/02 10:32:24;;;;;;;8.37;3.53;;;15.00;99.90;14.30;100539;;;;584770;243;24038;-80
2022/11/02 10:34:55;;;;;;;14.10;5.17;;;14.90;99.90;14.20;100536;;;;580959;243;24046;-80
2022/11/02 10:37:35;;;;;;;12.40;4.33;;;14.80;99.90;14.20;100535;;;;580864;243;24108;-81
2022/11/02 10:40:18;;;;;;;10.27;3.83;;;14.70;99.90;14.10;100540;;;;581455;243;24076;-81
2022/11/02 10:42:55;;;;;;;9.37;4.87;;;14.60;99.90;14.00;100537;;;;576074;243;45904;-81
2022/11/02 10:45:56;;;;;;;8.60;3.77;;;14.60;99.90;13.90;100536;;;;570208;247;24096;-80
2022/11/02 10:49:20;;;;;;;7.83;3.53;;;14.50;99.90;13.90;100534;;;;570403;247;24058;-80
2022/11/02 10:51:51;;;;;;;6.00;3.30;;;14.50;99.90;13.90;100525;;;;570948;247;24055;-81
2022/11/02 10:54:16;;;;;;;10.53;4.20;;;14.50;99.90;13.90;100527;;;;578660;247;24069;-82
2022/11/02 10:56:47;;;;;;;9.43;4.17;;;14.50;99.90;13.80;100525;;;;581192;243;24031;-81
2022/11/02 10:59:22;;;;;;;11.83;5.07;;;14.40;99.90;13.80;100514;;;;567993;247;24120;-81
2022/11/02 11:02:05;;;;;;;8.60;4.80;;;14.40;99.90;13.70;100519;;;;580589;243;24118;-81
2022/11/02 11:04:31;;;;;;;8.57;5.07;;;14.40;99.90;13.70;100517;;;;582029;242;24039;-80
2022/11/02 11:06:59;;;;;;;11.33;5.00;;;14.30;99.90;13.60;100510;;;;571532;247;24148;-80
2022/11/02 11:09:29;;;;;;;11.00;5.10;;;14.20;99.90;13.50;100506;;;;571179;247;24080;-81
2022/11/02 11:12:16;;;;;;;11.63;4.93;;;14.20;99.90;13.50;100518;;;;568659;247;24175;-81
2022/11/02 11:14:51;;;;;;;16.80;4.60;;;14.10;99.90;13.40;100524;;;;578755;247;24126;-81
2022/11/02 11:17:26;;;;;;;10.17;4.93;;;14.00;99.90;13.30;100513;;;;581601;243;24024;-81
2022/11/02 11:19:57;;;;;;;20.70;6.30;;;13.80;99.90;13.20;100523;;;;581299;243;25146;-80
2022/11/02 11:22:35;;;;;;;9.87;5.93;;;13.80;99.90;13.10;100515;;;;570528;247;24072;-81
2022/11/02 11:25:12;;;;;;;12.10;6.10;;;13.80;99.90;13.10;100534;;;;581586;243;24029;-80
2022/11/02 11:27:46;;;;;;;11.73;6.83;;;13.70;99.90;13.00;100525;;;;570134;247;24082;-80
2022/11/02 11:30:32;;;;;;;13.27;6.07;;;13.70;99.90;13.00;100530;;;;570074;247;24088;-81
2022/11/02 11:33:00;;;;;;;14.47;6.90;;;13.60;99.90;12.90;100527;;;;579144;247;24110;-80
2022/11/02 11:35:34;;;;;;;12.00;7.03;;;13.50;99.90;12.90;100523;;;;570781;247;24103;-81
2022/11/02 11:38:02;;;;;;;14.50;7.27;;;13.50;99.90;12.90;100523;;;;578774;247;24053;-81
2022/11/02 11:40:30;;;;;;;12.93;6.80;;;13.50;99.90;12.80;100523;;;;570594;247;24186;-80